sensor_id;sensor_type;location;lat;lon;timestamp;P1;durP1;ratioP1;P2;durP2;ratioP2
64313;SDS011;50650;48.180;11.524;2022-11-20T00:01:50;1.70;;;1.15;;
64313;SDS011;50650;48.180;11.524;2022-11-20T00:04:16;3.50;;;1.67;;
64313;SDS011;50650;48.180;11.524;2022-11-20T00:06:43;3.25;;;1.45;;
64313;SDS011;50650;48.180;11.524;2022-11-20T00:09:09;2.20;;;1.10;;
64313;SDS011;50650;48.180;11.524;2022-11-20T00:11:36;3.13;;;1.20;;
64313;SDS011;50650;48.180;11.524;2022-11-20T00:14:03;2.78;;;1.50;;
64313;SDS011;50650;48.180;11.524;2022-11-20T00:16:30;2.30;;;1.20;;
64313;SDS011;50650;48.180;11.524;2022-11-20T00:18:58;3.88;;;1.10;;
64313;SDS011;50650;48.180;11.524;2022-11-20T00:21:25;1.85;;;1.17;;
64313;SDS011;50650;48.180;11.524;2022-11-20T00:23:53;3.08;;;1.27;;
64313;SDS011;50650;48.180;11.524;2022-11-20T00:26:20;1.98;;;1.38;;
64313;SDS011;50650;48.180;11.524;2022-11-20T00:28:49;2.00;;;1.25;;
64313;SDS011;50650;48.180;11.524;2022-11-20T00:31:16;2.75;;;1.20;;
64313;SDS011;50650;48.180;11.524;2022-11-20T00:33:43;2.78;;;1.50;;
64313;SDS011;50650;48.180;11.524;2022-11-20T00:36:11;3.55;;;1.20;;
64313;SDS011;50650;48.180;11.524;2022-11-20T00:38:39;2.13;;;1.40;;
64313;SDS011;50650;48.180;11.524;2022-11-20T00:41:07;2.45;;;1.50;;
64313;SDS011;50650;48.180;11.524;2022-11-20T00:43:35;1.42;;;1.10;;
64313;SDS011;50650;48.180;11.524;2022-11-20T00:46:03;2.55;;;1.45;;
64313;SDS011;50650;48.180;11.524;2022-11-20T00:48:31;2.92;;;1.60;;
64313;SDS011;50650;48.180;11.524;2022-11-20T00:50:58;3.67;;;1.40;;
64313;SDS011;50650;48.180;11.524;2022-11-20T00:53:26;3.67;;;1.55;;
64313;SDS011;50650;48.180;11.524;2022-11-20T00:55:53;2.58;;;1.45;;
64313;SDS011;50650;48.180;11.524;2022-11-20T00:58:20;1.55;;;1.15;;
64313;SDS011;50650;48.180;11.524;2022-11-20T01:00:47;3.22;;;1.40;;
64313;SDS011;50650;48.180;11.524;2022-11-20T01:03:14;2.50;;;1.20;;
64313;SDS011;50650;48.180;11.524;2022-11-20T01:05:41;2.78;;;1.45;;
64313;SDS011;50650;48.180;11.524;2022-11-20T01:08:07;2.17;;;1.50;;
64313;SDS011;50650;48.180;11.524;2022-11-20T01:10:35;3.92;;;1.52;;
64313;SDS011;50650;48.180;11.524;2022-11-20T01:13:02;2.75;;;1.42;;
64313;SDS011;50650;48.180;11.524;2022-11-20T01:15:48;3.20;;;1.35;;
64313;SDS011;50650;48.180;11.524;2022-11-20T01:18:14;2.25;;;1.63;;
64313;SDS011;50650;48.180;11.524;2022-11-20T01:20:41;2.33;;;1.50;;
64313;SDS011;50650;48.180;11.524;2022-11-20T01:23:07;3.50;;;1.80;;
64313;SDS011;50650;48.180;11.524;2022-11-20T01:25:35;3.72;;;1.70;;
64313;SDS011;50650;48.180;11.524;2022-11-20T01:28:02;2.83;;;1.88;;
64313;SDS011;50650;48.180;11.524;2022-11-20T01:30:28;2.92;;;1.60;;
64313;SDS011;50650;48.180;11.524;2022-11-20T01:32:55;2.58;;;1.60;;
64313;SDS011;50650;48.180;11.524;2022-11-20T01:35:22;2.97;;;1.67;;
64313;SDS011;50650;48.180;11.524;2022-11-20T01:37:49;4.03;;;1.60;;
64313;SDS011;50650;48.180;11.524;2022-11-20T01:40:16;2.83;;;1.40;;
64313;SDS011;50650;48.180;11.524;2022-11-20T01:42:46;1.85;;;1.27;;
64313;SDS011;50650;48.180;11.524;2022-11-20T01:45:50;2.35;;;1.52;;
64313;SDS011;50650;48.180;11.524;2022-11-20T01:48:22;2.55;;;1.58;;
64313;SDS011;50650;48.180;11.524;2022-11-20T01:50:50;3.42;;;1.50;;
64313;SDS011;50650;48.180;11.524;2022-11-20T01:53:18;2.55;;;1.70;;
64313;SDS011;50650;48.180;11.524;2022-11-20T01:55:47;2.03;;;1.27;;
64313;SDS011;50650;48.180;11.524;2022-11-20T01:58:16;1.80;;;1.30;;
64313;SDS011;50650;48.180;11.524;2022-11-20T02:00:46;3.08;;;1.50;;
64313;SDS011;50650;48.180;11.524;2022-11-20T02:03:13;2.40;;;1.42;;
64313;SDS011;50650;48.180;11.524;2022-11-20T02:05:43;2.03;;;1.50;;
64313;SDS011;50650;48.180;11.524;2022-11-20T02:08:12;3.80;;;1.40;;
64313;SDS011;50650;48.180;11.524;2022-11-20T02:10:38;2.95;;;1.40;;
64313;SDS011;50650;48.180;11.524;2022-11-20T02:13:05;2.55;;;1.50;;
64313;SDS011;50650;48.180;11.524;2022-11-20T02:15:51;2.53;;;1.67;;
64313;SDS011;50650;48.180;11.524;2022-11-20T02:18:18;2.42;;;1.75;;
64313;SDS011;50650;48.180;11.524;2022-11-20T02:20:47;2.75;;;1.90;;
64313;SDS011;50650;48.180;11.524;2022-11-20T02:23:16;2.05;;;1.73;;
64313;SDS011;50650;48.180;11.524;2022-11-20T02:25:47;2.67;;;1.77;;
64313;SDS011;50650;48.180;11.524;2022-11-20T02:28:16;4.03;;;1.70;;
64313;SDS011;50650;48.180;11.524;2022-11-20T02:30:42;5.20;;;1.80;;
64313;SDS011;50650;48.180;11.524;2022-11-20T02:33:09;4.25;;;1.80;;
64313;SDS011;50650;48.180;11.524;2022-11-20T02:35:40;3.30;;;1.77;;
64313;SDS011;50650;48.180;11.524;2022-11-20T02:38:08;3.55;;;1.92;;
64313;SDS011;50650;48.180;11.524;2022-11-20T02:40:35;2.72;;;1.70;;
64313;SDS011;50650;48.180;11.524;2022-11-20T02:43:03;5.00;;;1.75;;
64313;SDS011;50650;48.180;11.524;2022-11-20T02:45:30;2.38;;;1.63;;
64313;SDS011;50650;48.180;11.524;2022-11-20T02:47:56;3.67;;;1.77;;
64313;SDS011;50650;48.180;11.524;2022-11-20T02:50:23;2.80;;;1.90;;
64313;SDS011;50650;48.180;11.524;2022-11-20T02:52:49;2.53;;;1.55;;
64313;SDS011;50650;48.180;11.524;2022-11-20T02:55:16;3.65;;;1.77;;
64313;SDS011;50650;48.180;11.524;2022-11-20T02:57:42;4.15;;;1.70;;
64313;SDS011;50650;48.180;11.524;2022-11-20T03:00:11;2.28;;;1.70;;
64313;SDS011;50650;48.180;11.524;2022-11-20T03:02:38;2.47;;;1.60;;
64313;SDS011;50650;48.180;11.524;2022-11-20T03:05:05;2.45;;;1.33;;
64313;SDS011;50650;48.180;11.524;2022-11-20T03:07:31;3.47;;;1.70;;
64313;SDS011;50650;48.180;11.524;2022-11-20T03:09:58;2.75;;;1.50;;
64313;SDS011;50650;48.180;11.524;2022-11-20T03:12:24;1.98;;;1.33;;
64313;SDS011;50650;48.180;11.524;2022-11-20T03:14:51;2.20;;;1.63;;
64313;SDS011;50650;48.180;11.524;2022-11-20T03:17:19;3.08;;;1.83;;
64313;SDS011;50650;48.180;11.524;2022-11-20T03:19:46;3.55;;;1.70;;
64313;SDS011;50650;48.180;11.524;2022-11-20T03:22:12;3.35;;;2.00;;
64313;SDS011;50650;48.180;11.524;2022-11-20T03:24:39;2.33;;;1.50;;
64313;SDS011;50650;48.180;11.524;2022-11-20T03:27:05;3.15;;;1.73;;
64313;SDS011;50650;48.180;11.524;2022-11-20T03:29:31;4.15;;;1.70;;
64313;SDS011;50650;48.180;11.524;2022-11-20T03:31:58;3.75;;;1.38;;
64313;SDS011;50650;48.180;11.524;2022-11-20T03:34:26;1.77;;;1.45;;
64313;SDS011;50650;48.180;11.524;2022-11-20T03:36:52;4.72;;;1.55;;
64313;SDS011;50650;48.180;11.524;2022-11-20T03:39:19;2.10;;;1.55;;
64313;SDS011;50650;48.180;11.524;2022-11-20T03:41:45;2.95;;;1.55;;
64313;SDS011;50650;48.180;11.524;2022-11-20T03:44:12;2.63;;;1.50;;
64313;SDS011;50650;48.180;11.524;2022-11-20T03:46:38;2.15;;;1.25;;
64313;SDS011;50650;48.180;11.524;2022-11-20T03:49:05;2.88;;;1.75;;
64313;SDS011;50650;48.180;11.524;2022-11-20T03:51:34;2.90;;;1.42;;
64313;SDS011;50650;48.180;11.524;2022-11-20T03:54:02;3.17;;;1.63;;
64313;SDS011;50650;48.180;11.524;2022-11-20T03:56:30;2.25;;;1.42;;
64313;SDS011;50650;48.180;11.524;2022-11-20T03:58:57;4.22;;;1.42;;
64313;SDS011;50650;48.180;11.524;2022-11-20T04:01:25;2.60;;;1.90;;
64313;SDS011;50650;48.180;11.524;2022-11-20T04:03:53;2.20;;;1.38;;
64313;SDS011;50650;48.180;11.524;2022-11-20T04:06:21;1.77;;;1.40;;
64313;SDS011;50650;48.180;11.524;2022-11-20T04:08:49;2.30;;;1.42;;
64313;SDS011;50650;48.180;11.524;2022-11-20T04:11:17;3.28;;;1.52;;
64313;SDS011;50650;48.180;11.524;2022-11-20T04:13:45;1.85;;;1.33;;
64313;SDS011;50650;48.180;11.524;2022-11-20T04:16:13;2.20;;;1.40;;
64313;SDS011;50650;48.180;11.524;2022-11-20T04:18:39;2.38;;;1.33;;
64313;SDS011;50650;48.180;11.524;2022-11-20T04:21:06;2.45;;;1.48;;
64313;SDS011;50650;48.180;11.524;2022-11-20T04:23:33;1.75;;;1.30;;
64313;SDS011;50650;48.180;11.524;2022-11-20T04:26:04;1.75;;;1.40;;
64313;SDS011;50650;48.180;11.524;2022-11-20T04:28:32;2.30;;;1.50;;
64313;SDS011;50650;48.180;11.524;2022-11-20T04:31:05;2.00;;;1.30;;
64313;SDS011;50650;48.180;11.524;2022-11-20T04:33:33;2.60;;;1.27;;
64313;SDS011;50650;48.180;11.524;2022-11-20T04:36:01;2.17;;;1.63;;
64313;SDS011;50650;48.180;11.524;2022-11-20T04:38:28;3.25;;;1.60;;
64313;SDS011;50650;48.180;11.524;2022-11-20T04:40:56;2.95;;;1.30;;
64313;SDS011;50650;48.180;11.524;2022-11-20T04:43:25;2.78;;;1.73;;
64313;SDS011;50650;48.180;11.524;2022-11-20T04:45:51;2.38;;;1.33;;
64313;SDS011;50650;48.180;11.524;2022-11-20T04:48:18;2.58;;;1.40;;
64313;SDS011;50650;48.180;11.524;2022-11-20T04:50:45;2.95;;;1.58;;
64313;SDS011;50650;48.180;11.524;2022-11-20T04:53:11;2.78;;;1.40;;
64313;SDS011;50650;48.180;11.524;2022-11-20T04:55:38;3.35;;;1.42;;
64313;SDS011;50650;48.180;11.524;2022-11-20T04:58:04;2.00;;;1.40;;
64313;SDS011;50650;48.180;11.524;2022-11-20T05:00:32;3.03;;;1.65;;
64313;SDS011;50650;48.180;11.524;2022-11-20T05:02:59;2.35;;;1.65;;
64313;SDS011;50650;48.180;11.524;2022-11-20T05:05:25;3.90;;;1.70;;
64313;SDS011;50650;48.180;11.524;2022-11-20T05:07:52;1.85;;;1.45;;
64313;SDS011;50650;48.180;11.524;2022-11-20T05:10:18;2.22;;;1.30;;
64313;SDS011;50650;48.180;11.524;2022-11-20T05:12:45;2.83;;;1.50;;
64313;SDS011;50650;48.180;11.524;2022-11-20T05:15:11;2.63;;;1.40;;
64313;SDS011;50650;48.180;11.524;2022-11-20T05:17:39;1.65;;;1.45;;
64313;SDS011;50650;48.180;11.524;2022-11-20T05:20:06;4.28;;;1.67;;
64313;SDS011;50650;48.180;11.524;2022-11-20T05:22:34;2.38;;;1.58;;
64313;SDS011;50650;48.180;11.524;2022-11-20T05:25:00;2.47;;;1.80;;
64313;SDS011;50650;48.180;11.524;2022-11-20T05:27:27;4.18;;;1.92;;
64313;SDS011;50650;48.180;11.524;2022-11-20T05:29:54;2.35;;;1.67;;
64313;SDS011;50650;48.180;11.524;2022-11-20T05:32:20;2.70;;;1.60;;
64313;SDS011;50650;48.180;11.524;2022-11-20T05:34:51;2.83;;;1.60;;
64313;SDS011;50650;48.180;11.524;2022-11-20T05:37:18;3.33;;;1.83;;
64313;SDS011;50650;48.180;11.524;2022-11-20T05:39:44;2.40;;;1.42;;
64313;SDS011;50650;48.180;11.524;2022-11-20T05:42:11;3.47;;;1.70;;
64313;SDS011;50650;48.180;11.524;2022-11-20T05:44:55;2.28;;;1.58;;
64313;SDS011;50650;48.180;11.524;2022-11-20T05:47:22;6.30;;;1.63;;
64313;SDS011;50650;48.180;11.524;2022-11-20T05:49:48;3.05;;;1.73;;
64313;SDS011;50650;48.180;11.524;2022-11-20T05:52:16;2.72;;;1.63;;
64313;SDS011;50650;48.180;11.524;2022-11-20T05:54:43;2.55;;;1.50;;
64313;SDS011;50650;48.180;11.524;2022-11-20T05:57:09;1.73;;;1.50;;
64313;SDS011;50650;48.180;11.524;2022-11-20T05:59:36;2.85;;;1.30;;
64313;SDS011;50650;48.180;11.524;2022-11-20T06:02:02;2.83;;;1.42;;
64313;SDS011;50650;48.180;11.524;2022-11-20T06:04:29;3.33;;;1.60;;
64313;SDS011;50650;48.180;11.524;2022-11-20T06:06:55;1.58;;;1.30;;
64313;SDS011;50650;48.180;11.524;2022-11-20T06:09:23;4.95;;;1.70;;
64313;SDS011;50650;48.180;11.524;2022-11-20T06:11:50;1.77;;;1.52;;
64313;SDS011;50650;48.180;11.524;2022-11-20T06:14:16;4.10;;;1.75;;
64313;SDS011;50650;48.180;11.524;2022-11-20T06:16:43;2.70;;;1.60;;
64313;SDS011;50650;48.180;11.524;2022-11-20T06:19:09;2.63;;;1.65;;
64313;SDS011;50650;48.180;11.524;2022-11-20T06:21:36;7.55;;;1.85;;
64313;SDS011;50650;48.180;11.524;2022-11-20T06:24:02;2.67;;;1.73;;
64313;SDS011;50650;48.180;11.524;2022-11-20T06:26:30;3.70;;;2.30;;
64313;SDS011;50650;48.180;11.524;2022-11-20T06:28:57;5.13;;;1.80;;
64313;SDS011;50650;48.180;11.524;2022-11-20T06:31:24;2.63;;;1.90;;
64313;SDS011;50650;48.180;11.524;2022-11-20T06:33:51;1.90;;;1.20;;
64313;SDS011;50650;48.180;11.524;2022-11-20T06:36:19;2.90;;;1.52;;
64313;SDS011;50650;48.180;11.524;2022-11-20T06:38:46;2.00;;;1.45;;
64313;SDS011;50650;48.180;11.524;2022-11-20T06:41:13;9.23;;;1.70;;
64313;SDS011;50650;48.180;11.524;2022-11-20T06:43:42;2.10;;;1.20;;
64313;SDS011;50650;48.180;11.524;2022-11-20T06:46:09;1.40;;;1.20;;
64313;SDS011;50650;48.180;11.524;2022-11-20T06:48:36;2.35;;;1.45;;
64313;SDS011;50650;48.180;11.524;2022-11-20T06:51:03;2.85;;;1.30;;
64313;SDS011;50650;48.180;11.524;2022-11-20T06:53:30;2.63;;;1.45;;
64313;SDS011;50650;48.180;11.524;2022-11-20T06:55:58;1.80;;;1.20;;
64313;SDS011;50650;48.180;11.524;2022-11-20T06:58:26;1.65;;;1.15;;
64313;SDS011;50650;48.180;11.524;2022-11-20T07:00:54;2.53;;;1.52;;
64313;SDS011;50650;48.180;11.524;2022-11-20T07:03:24;2.03;;;1.15;;
64313;SDS011;50650;48.180;11.524;2022-11-20T07:05:50;2.33;;;1.20;;
64313;SDS011;50650;48.180;11.524;2022-11-20T07:08:17;2.95;;;1.10;;
64313;SDS011;50650;48.180;11.524;2022-11-20T07:10:45;2.78;;;1.10;;
64313;SDS011;50650;48.180;11.524;2022-11-20T07:13:11;1.63;;;1.10;;
64313;SDS011;50650;48.180;11.524;2022-11-20T07:15:38;1.13;;;0.73;;
64313;SDS011;50650;48.180;11.524;2022-11-20T07:18:06;1.95;;;1.20;;
64313;SDS011;50650;48.180;11.524;2022-11-20T07:20:32;1.55;;;1.05;;
64313;SDS011;50650;48.180;11.524;2022-11-20T07:22:59;1.80;;;1.25;;
64313;SDS011;50650;48.180;11.524;2022-11-20T07:25:26;1.77;;;0.93;;
64313;SDS011;50650;48.180;11.524;2022-11-20T07:28:01;3.92;;;1.10;;
64313;SDS011;50650;48.180;11.524;2022-11-20T07:30:29;1.65;;;1.05;;
64313;SDS011;50650;48.180;11.524;2022-11-20T07:32:56;2.42;;;1.10;;
64313;SDS011;50650;48.180;11.524;2022-11-20T07:35:24;1.88;;;1.10;;
64313;SDS011;50650;48.180;11.524;2022-11-20T07:37:51;2.17;;;1.27;;
64313;SDS011;50650;48.180;11.524;2022-11-20T07:40:18;4.05;;;1.42;;
64313;SDS011;50650;48.180;11.524;2022-11-20T07:42:48;5.18;;;1.20;;
64313;SDS011;50650;48.180;11.524;2022-11-20T07:45:15;3.72;;;1.30;;
64313;SDS011;50650;48.180;11.524;2022-11-20T07:47:42;1.77;;;1.20;;
64313;SDS011;50650;48.180;11.524;2022-11-20T07:50:08;2.00;;;1.35;;
64313;SDS011;50650;48.180;11.524;2022-11-20T07:52:37;4.22;;;1.30;;
64313;SDS011;50650;48.180;11.524;2022-11-20T07:55:03;2.00;;;1.20;;
64313;SDS011;50650;48.180;11.524;2022-11-20T07:57:31;4.53;;;1.30;;
64313;SDS011;50650;48.180;11.524;2022-11-20T07:59:57;2.72;;;1.27;;
64313;SDS011;50650;48.180;11.524;2022-11-20T08:02:24;3.85;;;1.70;;
64313;SDS011;50650;48.180;11.524;2022-11-20T08:04:50;3.45;;;1.85;;
64313;SDS011;50650;48.180;11.524;2022-11-20T08:07:17;1.60;;;1.30;;
64313;SDS011;50650;48.180;11.524;2022-11-20T08:09:45;2.88;;;1.58;;
64313;SDS011;50650;48.180;11.524;2022-11-20T08:12:15;2.00;;;1.52;;
64313;SDS011;50650;48.180;11.524;2022-11-20T08:15:00;3.35;;;1.58;;
64313;SDS011;50650;48.180;11.524;2022-11-20T08:17:27;3.08;;;1.30;;
64313;SDS011;50650;48.180;11.524;2022-11-20T08:19:54;2.33;;;1.60;;
64313;SDS011;50650;48.180;11.524;2022-11-20T08:22:20;2.17;;;1.30;;
64313;SDS011;50650;48.180;11.524;2022-11-20T08:24:48;3.28;;;1.40;;
64313;SDS011;50650;48.180;11.524;2022-11-20T08:27:14;2.60;;;1.40;;
64313;SDS011;50650;48.180;11.524;2022-11-20T08:29:41;2.13;;;1.30;;
64313;SDS011;50650;48.180;11.524;2022-11-20T08:32:07;1.90;;;1.48;;
64313;SDS011;50650;48.180;11.524;2022-11-20T08:34:34;4.43;;;1.73;;
64313;SDS011;50650;48.180;11.524;2022-11-20T08:37:01;2.95;;;1.38;;
64313;SDS011;50650;48.180;11.524;2022-11-20T08:39:27;3.10;;;1.50;;
64313;SDS011;50650;48.180;11.524;2022-11-20T08:41:56;2.58;;;1.73;;
64313;SDS011;50650;48.180;11.524;2022-11-20T08:44:22;3.53;;;1.95;;
64313;SDS011;50650;48.180;11.524;2022-11-20T08:46:51;1.98;;;1.38;;
64313;SDS011;50650;48.180;11.524;2022-11-20T08:49:18;2.67;;;1.55;;
64313;SDS011;50650;48.180;11.524;2022-11-20T08:51:44;1.80;;;1.38;;
64313;SDS011;50650;48.180;11.524;2022-11-20T08:54:13;6.30;;;1.77;;
64313;SDS011;50650;48.180;11.524;2022-11-20T08:56:40;2.83;;;1.40;;
64313;SDS011;50650;48.180;11.524;2022-11-20T08:59:08;2.75;;;1.35;;
64313;SDS011;50650;48.180;11.524;2022-11-20T09:01:34;3.13;;;1.40;;
64313;SDS011;50650;48.180;11.524;2022-11-20T09:04:01;2.80;;;1.35;;
64313;SDS011;50650;48.180;11.524;2022-11-20T09:06:29;1.80;;;1.17;;
64313;SDS011;50650;48.180;11.524;2022-11-20T09:08:56;2.67;;;1.42;;
64313;SDS011;50650;48.180;11.524;2022-11-20T09:11:23;4.05;;;1.85;;
64313;SDS011;50650;48.180;11.524;2022-11-20T09:13:50;5.53;;;1.52;;
64313;SDS011;50650;48.180;11.524;2022-11-20T09:16:18;2.50;;;1.20;;
64313;SDS011;50650;48.180;11.524;2022-11-20T09:18:45;2.28;;;1.50;;
64313;SDS011;50650;48.180;11.524;2022-11-20T09:21:12;2.30;;;1.80;;
64313;SDS011;50650;48.180;11.524;2022-11-20T09:23:39;4.15;;;2.25;;
64313;SDS011;50650;48.180;11.524;2022-11-20T09:26:06;2.88;;;1.70;;
64313;SDS011;50650;48.180;11.524;2022-11-20T09:28:38;6.80;;;1.10;;
64313;SDS011;50650;48.180;11.524;2022-11-20T09:31:05;3.28;;;1.40;;
64313;SDS011;50650;48.180;11.524;2022-11-20T09:33:38;3.22;;;1.30;;
64313;SDS011;50650;48.180;11.524;2022-11-20T09:36:04;2.53;;;1.25;;
64313;SDS011;50650;48.180;11.524;2022-11-20T09:38:31;1.77;;;1.17;;
64313;SDS011;50650;48.180;11.524;2022-11-20T09:40:58;2.72;;;1.40;;
64313;SDS011;50650;48.180;11.524;2022-11-20T09:43:32;2.92;;;1.30;;
64313;SDS011;50650;48.180;11.524;2022-11-20T09:46:07;1.65;;;1.00;;
64313;SDS011;50650;48.180;11.524;2022-11-20T09:51:34;4.22;;;1.17;;
64313;SDS011;50650;48.180;11.524;2022-11-20T09:54:10;2.15;;;1.25;;
64313;SDS011;50650;48.180;11.524;2022-11-20T09:56:41;1.50;;;1.08;;
64313;SDS011;50650;48.180;11.524;2022-11-20T09:59:13;1.60;;;0.98;;
64313;SDS011;50650;48.180;11.524;2022-11-20T10:01:45;1.90;;;0.95;;
64313;SDS011;50650;48.180;11.524;2022-11-20T10:04:15;3.70;;;0.90;;
64313;SDS011;50650;48.180;11.524;2022-11-20T10:06:44;1.80;;;1.10;;
64313;SDS011;50650;48.180;11.524;2022-11-20T10:09:18;2.72;;;1.30;;
64313;SDS011;50650;48.180;11.524;2022-11-20T10:11:48;3.38;;;1.92;;
64313;SDS011;50650;48.180;11.524;2022-11-20T10:14:21;2.45;;;1.40;;
64313;SDS011;50650;48.180;11.524;2022-11-20T10:16:59;2.15;;;1.23;;
64313;SDS011;50650;48.180;11.524;2022-11-20T10:19:37;2.05;;;1.35;;
64313;SDS011;50650;48.180;11.524;2022-11-20T10:22:15;6.18;;;1.02;;
64313;SDS011;50650;48.180;11.524;2022-11-20T10:24:50;3.10;;;0.80;;
64313;SDS011;50650;48.180;11.524;2022-11-20T10:27:34;3.05;;;1.10;;
64313;SDS011;50650;48.180;11.524;2022-11-20T10:30:08;1.40;;;0.88;;
64313;SDS011;50650;48.180;11.524;2022-11-20T10:32:37;1.40;;;0.80;;
64313;SDS011;50650;48.180;11.524;2022-11-20T10:35:14;1.08;;;0.70;;
64313;SDS011;50650;48.180;11.524;2022-11-20T10:37:44;1.17;;;0.80;;
64313;SDS011;50650;48.180;11.524;2022-11-20T10:40:19;0.95;;;0.70;;
64313;SDS011;50650;48.180;11.524;2022-11-20T10:42:49;2.33;;;0.80;;
64313;SDS011;50650;48.180;11.524;2022-11-20T10:45:19;1.55;;;0.77;;
64313;SDS011;50650;48.180;11.524;2022-11-20T10:47:54;1.60;;;0.52;;
64313;SDS011;50650;48.180;11.524;2022-11-20T10:50:23;1.50;;;0.98;;
64313;SDS011;50650;48.180;11.524;2022-11-20T10:52:52;4.13;;;1.23;;
64313;SDS011;50650;48.180;11.524;2022-11-20T10:55:27;1.45;;;1.10;;
64313;SDS011;50650;48.180;11.524;2022-11-20T10:57:59;1.88;;;0.73;;
64313;SDS011;50650;48.180;11.524;2022-11-20T11:00:32;2.10;;;0.88;;
64313;SDS011;50650;48.180;11.524;2022-11-20T11:02:58;2.25;;;0.80;;
64313;SDS011;50650;48.180;11.524;2022-11-20T11:05:32;1.35;;;0.60;;
64313;SDS011;50650;48.180;11.524;2022-11-20T11:08:00;2.17;;;0.90;;
64313;SDS011;50650;48.180;11.524;2022-11-20T11:10:28;2.05;;;1.00;;
64313;SDS011;50650;48.180;11.524;2022-11-20T11:13:00;1.33;;;0.70;;
64313;SDS011;50650;48.180;11.524;2022-11-20T11:15:35;0.88;;;0.60;;
64313;SDS011;50650;48.180;11.524;2022-11-20T11:18:08;3.65;;;1.35;;
64313;SDS011;50650;48.180;11.524;2022-11-20T11:20:37;10.90;;;2.65;;
64313;SDS011;50650;48.180;11.524;2022-11-20T11:23:04;6.97;;;2.53;;
64313;SDS011;50650;48.180;11.524;2022-11-20T11:25:31;2.28;;;0.88;;
64313;SDS011;50650;48.180;11.524;2022-11-20T11:28:00;2.08;;;0.80;;
64313;SDS011;50650;48.180;11.524;2022-11-20T11:30:28;2.28;;;0.75;;
64313;SDS011;50650;48.180;11.524;2022-11-20T11:33:03;1.95;;;0.77;;
64313;SDS011;50650;48.180;11.524;2022-11-20T11:35:31;1.52;;;0.60;;
64313;SDS011;50650;48.180;11.524;2022-11-20T11:38:04;1.92;;;0.75;;
64313;SDS011;50650;48.180;11.524;2022-11-20T11:40:33;1.58;;;0.63;;
64313;SDS011;50650;48.180;11.524;2022-11-20T11:43:02;1.30;;;0.60;;
64313;SDS011;50650;48.180;11.524;2022-11-20T11:45:51;1.73;;;0.77;;
64313;SDS011;50650;48.180;11.524;2022-11-20T11:48:18;1.90;;;0.98;;
64313;SDS011;50650;48.180;11.524;2022-11-20T11:50:47;0.80;;;0.60;;
64313;SDS011;50650;48.180;11.524;2022-11-20T11:53:16;3.40;;;1.33;;
64313;SDS011;50650;48.180;11.524;2022-11-20T11:55:44;2.13;;;0.80;;
64313;SDS011;50650;48.180;11.524;2022-11-20T11:58:15;1.27;;;0.52;;
64313;SDS011;50650;48.180;11.524;2022-11-20T12:00:49;1.25;;;0.77;;
64313;SDS011;50650;48.180;11.524;2022-11-20T12:03:27;1.45;;;0.70;;
64313;SDS011;50650;48.180;11.524;2022-11-20T12:05:56;2.13;;;0.82;;
64313;SDS011;50650;48.180;11.524;2022-11-20T12:08:26;2.78;;;0.75;;
64313;SDS011;50650;48.180;11.524;2022-11-20T12:10:59;1.63;;;0.70;;
64313;SDS011;50650;48.180;11.524;2022-11-20T12:13:37;1.55;;;0.80;;
64313;SDS011;50650;48.180;11.524;2022-11-20T12:16:07;1.90;;;0.82;;
64313;SDS011;50650;48.180;11.524;2022-11-20T12:18:38;1.10;;;0.85;;
64313;SDS011;50650;48.180;11.524;2022-11-20T12:21:08;1.88;;;1.20;;
64313;SDS011;50650;48.180;11.524;2022-11-20T12:23:44;3.00;;;2.08;;
64313;SDS011;50650;48.180;11.524;2022-11-20T12:26:18;5.45;;;2.25;;
64313;SDS011;50650;48.180;11.524;2022-11-20T12:28:51;2.20;;;1.73;;
64313;SDS011;50650;48.180;11.524;2022-11-20T12:31:26;2.22;;;0.93;;
64313;SDS011;50650;48.180;11.524;2022-11-20T12:34:08;4.32;;;0.85;;
64313;SDS011;50650;48.180;11.524;2022-11-20T12:36:40;2.60;;;1.17;;
64313;SDS011;50650;48.180;11.524;2022-11-20T12:39:21;2.00;;;0.88;;
64313;SDS011;50650;48.180;11.524;2022-11-20T12:42:08;1.50;;;0.80;;
64313;SDS011;50650;48.180;11.524;2022-11-20T12:45:10;1.88;;;0.65;;
64313;SDS011;50650;48.180;11.524;2022-11-20T12:50:37;1.58;;;0.85;;
64313;SDS011;50650;48.180;11.524;2022-11-20T12:53:10;1.73;;;0.75;;
64313;SDS011;50650;48.180;11.524;2022-11-20T12:55:46;1.08;;;0.75;;
64313;SDS011;50650;48.180;11.524;2022-11-20T12:58:18;3.05;;;0.90;;
64313;SDS011;50650;48.180;11.524;2022-11-20T13:00:48;3.08;;;0.63;;
64313;SDS011;50650;48.180;11.524;2022-11-20T13:03:25;2.05;;;0.90;;
64313;SDS011;50650;48.180;11.524;2022-11-20T13:06:00;1.33;;;0.88;;
64313;SDS011;50650;48.180;11.524;2022-11-20T13:08:32;4.88;;;1.42;;
64313;SDS011;50650;48.180;11.524;2022-11-20T13:11:03;5.05;;;1.60;;
64313;SDS011;50650;48.180;11.524;2022-11-20T13:13:39;2.13;;;1.23;;
64313;SDS011;50650;48.180;11.524;2022-11-20T13:16:10;1.75;;;0.85;;
64313;SDS011;50650;48.180;11.524;2022-11-20T13:18:40;1.20;;;0.70;;
64313;SDS011;50650;48.180;11.524;2022-11-20T13:21:14;1.80;;;0.70;;
64313;SDS011;50650;48.180;11.524;2022-11-20T13:23:41;2.17;;;0.93;;
64313;SDS011;50650;48.180;11.524;2022-11-20T13:26:15;2.17;;;0.85;;
64313;SDS011;50650;48.180;11.524;2022-11-20T13:28:59;1.42;;;0.80;;
64313;SDS011;50650;48.180;11.524;2022-11-20T13:31:30;1.02;;;0.73;;
64313;SDS011;50650;48.180;11.524;2022-11-20T13:33:58;1.80;;;0.90;;
64313;SDS011;50650;48.180;11.524;2022-11-20T13:36:27;1.77;;;0.93;;
64313;SDS011;50650;48.180;11.524;2022-11-20T13:38:55;2.05;;;0.90;;
64313;SDS011;50650;48.180;11.524;2022-11-20T13:41:27;1.30;;;0.90;;
64313;SDS011;50650;48.180;11.524;2022-11-20T13:43:58;2.63;;;0.90;;
64313;SDS011;50650;48.180;11.524;2022-11-20T13:46:35;1.92;;;1.00;;
64313;SDS011;50650;48.180;11.524;2022-11-20T13:49:06;4.45;;;1.10;;
64313;SDS011;50650;48.180;11.524;2022-11-20T13:51:34;1.45;;;0.93;;
64313;SDS011;50650;48.180;11.524;2022-11-20T13:54:10;2.75;;;0.80;;
64313;SDS011;50650;48.180;11.524;2022-11-20T13:56:50;2.15;;;1.10;;
64313;SDS011;50650;48.180;11.524;2022-11-20T13:59:36;1.58;;;0.93;;
64313;SDS011;50650;48.180;11.524;2022-11-20T14:02:09;1.15;;;1.00;;
64313;SDS011;50650;48.180;11.524;2022-11-20T14:04:38;2.60;;;1.20;;
64313;SDS011;50650;48.180;11.524;2022-11-20T14:07:08;2.05;;;1.00;;
64313;SDS011;50650;48.180;11.524;2022-11-20T14:09:38;1.80;;;1.08;;
64313;SDS011;50650;48.180;11.524;2022-11-20T14:12:14;1.10;;;0.80;;
64313;SDS011;50650;48.180;11.524;2022-11-20T14:14:47;1.50;;;1.00;;
64313;SDS011;50650;48.180;11.524;2022-11-20T14:17:18;3.60;;;1.33;;
64313;SDS011;50650;48.180;11.524;2022-11-20T14:19:46;1.98;;;1.20;;
64313;SDS011;50650;48.180;11.524;2022-11-20T14:22:18;2.58;;;0.80;;
64313;SDS011;50650;48.180;11.524;2022-11-20T14:24:46;3.38;;;1.27;;
64313;SDS011;50650;48.180;11.524;2022-11-20T14:27:17;2.95;;;1.73;;
64313;SDS011;50650;48.180;11.524;2022-11-20T14:29:46;1.95;;;1.15;;
64313;SDS011;50650;48.180;11.524;2022-11-20T14:32:14;2.20;;;1.52;;
64313;SDS011;50650;48.180;11.524;2022-11-20T14:34:41;1.65;;;1.02;;
64313;SDS011;50650;48.180;11.524;2022-11-20T14:37:11;1.23;;;0.80;;
64313;SDS011;50650;48.180;11.524;2022-11-20T14:39:40;2.00;;;1.08;;
64313;SDS011;50650;48.180;11.524;2022-11-20T14:42:14;1.42;;;0.80;;
64313;SDS011;50650;48.180;11.524;2022-11-20T14:44:42;1.40;;;0.70;;
64313;SDS011;50650;48.180;11.524;2022-11-20T14:47:10;2.88;;;0.80;;
64313;SDS011;50650;48.180;11.524;2022-11-20T14:49:39;1.40;;;0.80;;
64313;SDS011;50650;48.180;11.524;2022-11-20T14:52:11;1.05;;;0.60;;